Terminal Aerodrome Forecast
Issued by NWS Anchorage, AK

Home | Current Version | Previous Version | Text Only | Print | Product List | Glossary On
Versions: 1 2 3 4 5 6 7 8 9 10 11 12 13 14 15 16 17 18 19 20 21 22 23 24 25 26 27 28 29 30 31 32 33 34 35 36 37 38 39 40
000
FTAK31 PANC 031732
TAFANC
TAF
PANC 031732Z 0318/0424 VRB04KT P6SM FEW080 BKN200
     FM032200 20008KT P6SM FEW080 SCT200
     FM040100 17012G20KT P6SM SCT060 BKN120
     FM041000 16008KT P6SM SCT120 SCT200
     FM042100 15005KT P6SM VCSH SCT045 BKN070=

USA.gov is the U.S. government's official web portal to all federal, state and local government web resources and services.